Time;durP1;ratioP1;P1;durP2;ratioP2;P2;SDS_P1;SDS_P2;PMS_P1;PMS_P2;Temp;Humidity;BMP_temperature;BMP_pressure;BME280_temperature;BME280_humidity;BME280_pressure;Samples;Min_cycle;Max_cycle;Signal;HPM_P1;HPM_P2
2023/04/28 00:01:40;;;;;;;20.37;9.83;;;5.20;99.90;;;;;;4933104;29;20621;-71
2023/04/28 00:04:07;;;;;;;19.83;9.90;;;5.20;99.90;;;;;;4936408;29;20201;-72
2023/04/28 00:06:36;;;;;;;20.47;9.97;;;5.20;99.90;;;;;;4952745;29;20203;-72
2023/04/28 00:09:02;;;;;;;19.93;10.03;;;5.10;99.90;;;;;;4936986;29;20311;-72
2023/04/28 00:11:29;;;;;;;18.23;9.67;;;5.10;99.90;;;;;;4936693;29;20214;-72
2023/04/28 00:13:56;;;;;;;19.50;9.90;;;5.00;99.90;;;;;;4937970;29;20216;-71
2023/04/28 00:16:23;;;;;;;20.60;9.87;;;5.00;99.90;;;;;;4936472;29;20246;-72
2023/04/28 00:18:50;;;;;;;22.23;10.07;;;5.00;99.90;;;;;;4936368;29;20225;-73
2023/04/28 00:21:17;;;;;;;19.77;9.97;;;5.00;99.90;;;;;;4936713;29;20205;-71
2023/04/28 00:23:44;;;;;;;22.40;10.70;;;5.00;99.90;;;;;;4936327;29;20212;-71
2023/04/28 00:26:11;;;;;;;19.20;10.13;;;4.90;99.90;;;;;;4935603;29;20216;-73
2023/04/28 00:28:38;;;;;;;23.50;10.97;;;4.90;99.90;;;;;;4936080;29;20303;-72
2023/04/28 00:31:13;;;;;;;20.83;10.70;;;4.90;99.90;;;;;;4936287;29;20655;-71
2023/04/28 00:33:41;;;;;;;21.20;11.00;;;4.80;99.90;;;;;;4936236;29;20261;-74
2023/04/28 00:36:09;;;;;;;20.60;10.50;;;4.80;99.90;;;;;;4936261;29;20224;-72
2023/04/28 00:38:36;;;;;;;22.10;10.93;;;4.80;99.90;;;;;;4936178;29;20302;-72
2023/04/28 00:41:03;;;;;;;23.40;11.03;;;4.70;99.90;;;;;;4936170;29;20205;-70
2023/04/28 00:43:30;;;;;;;19.63;10.50;;;4.70;99.90;;;;;;4936136;29;20198;-70
2023/04/28 00:45:57;;;;;;;21.67;10.57;;;4.70;99.90;;;;;;4935826;29;20201;-72
2023/04/28 00:48:24;;;;;;;19.67;10.43;;;4.70;99.90;;;;;;4936034;29;20199;-73
2023/04/28 00:50:51;;;;;;;23.47;10.43;;;4.70;99.90;;;;;;4936033;29;20203;-76
2023/04/28 00:53:18;;;;;;;20.20;10.93;;;4.60;99.90;;;;;;4936144;29;20199;-75
2023/04/28 00:55:46;;;;;;;25.50;11.90;;;4.60;99.90;;;;;;4936106;29;20204;-76
2023/04/28 00:58:13;;;;;;;21.90;11.60;;;4.50;99.90;;;;;;4935513;29;20225;-75
2023/04/28 01:00:40;;;;;;;20.63;10.37;;;4.50;99.90;;;;;;4935974;29;20663;-75
2023/04/28 01:03:07;;;;;;;21.70;10.90;;;4.50;99.90;;;;;;4919978;29;20586;-76
2023/04/28 01:05:36;;;;;;;21.17;11.03;;;4.40;99.90;;;;;;4919853;29;20195;-76
2023/04/28 01:08:03;;;;;;;19.47;10.33;;;4.40;99.90;;;;;;4935477;29;20217;-74
2023/04/28 01:10:30;;;;;;;19.23;10.00;;;4.40;99.90;;;;;;4935622;29;20642;-74
2023/04/28 01:12:57;;;;;;;20.93;10.97;;;4.40;99.90;;;;;;4937052;29;20308;-74
2023/04/28 01:15:24;;;;;;;20.77;10.70;;;4.40;99.90;;;;;;4934942;29;20647;-74
2023/04/28 01:17:52;;;;;;;20.40;10.47;;;4.40;99.90;;;;;;4936814;29;20251;-73
2023/04/28 01:20:22;;;;;;;23.60;10.73;;;4.40;99.90;;;;;;4935498;29;20342;-74
2023/04/28 01:22:49;;;;;;;20.80;10.67;;;4.40;99.90;;;;;;4935235;29;20203;-74
2023/04/28 01:25:16;;;;;;;22.70;11.50;;;4.40;99.90;;;;;;4937029;29;20552;-75
2023/04/28 01:27:43;;;;;;;25.37;10.63;;;4.30;99.90;;;;;;4935507;29;20709;-74
2023/04/28 01:30:10;;;;;;;20.07;10.50;;;4.40;99.90;;;;;;4951446;29;20269;-75
2023/04/28 01:32:37;;;;;;;22.53;10.93;;;4.40;99.90;;;;;;4935393;29;20220;-74
2023/04/28 01:35:04;;;;;;;23.10;10.90;;;4.40;99.90;;;;;;4936542;29;20198;-74
2023/04/28 01:37:31;;;;;;;22.20;10.97;;;4.30;99.90;;;;;;4934724;29;20240;-74
2023/04/28 01:39:58;;;;;;;21.17;11.07;;;4.30;99.90;;;;;;4951249;29;20655;-73
2023/04/28 01:42:24;;;;;;;21.57;10.70;;;4.20;99.90;;;;;;4951179;29;20611;-74
2023/04/28 01:44:51;;;;;;;23.77;11.13;;;4.20;99.90;;;;;;4935177;29;20208;-74
2023/04/28 01:47:19;;;;;;;24.13;11.27;;;4.20;99.90;;;;;;4934757;29;20257;-74
2023/04/28 01:49:47;;;;;;;22.83;11.00;;;4.10;99.90;;;;;;4936409;29;20212;-73
2023/04/28 01:52:14;;;;;;;22.40;10.90;;;4.10;99.90;;;;;;4935262;29;20559;-74
2023/04/28 01:54:40;;;;;;;21.67;11.63;;;4.10;99.90;;;;;;4936537;29;20194;-73
2023/04/28 01:57:07;;;;;;;18.53;10.27;;;4.00;99.90;;;;;;4934847;29;20208;-74
2023/04/28 01:59:34;;;;;;;21.50;10.53;;;4.00;99.90;;;;;;4934772;29;20215;-74
2023/04/28 02:02:01;;;;;;;23.00;10.80;;;4.00;99.90;;;;;;4934385;29;20204;-75
2023/04/28 02:04:28;;;;;;;19.07;10.53;;;3.90;99.90;;;;;;4934796;29;20204;-75
2023/04/28 02:06:55;;;;;;;19.40;10.37;;;3.90;99.90;;;;;;4934808;29;20232;-75
2023/04/28 02:09:22;;;;;;;21.10;10.10;;;3.90;99.90;;;;;;4934518;29;20872;-75
2023/04/28 02:11:49;;;;;;;20.73;10.63;;;3.90;99.90;;;;;;4950464;29;20209;-75
2023/04/28 02:14:16;;;;;;;21.13;10.47;;;3.90;99.90;;;;;;4935735;29;20197;-75
2023/04/28 02:16:43;;;;;;;20.37;10.63;;;3.90;99.90;;;;;;4933989;29;20290;-75
2023/04/28 02:19:10;;;;;;;21.87;10.27;;;3.80;99.90;;;;;;4935693;29;20219;-75
2023/04/28 02:21:37;;;;;;;21.30;10.83;;;3.80;99.90;;;;;;4934950;29;20274;-74
2023/04/28 02:24:04;;;;;;;22.77;11.10;;;3.80;99.90;;;;;;4950462;29;20295;-74
2023/04/28 02:26:32;;;;;;;20.83;11.17;;;3.70;99.90;;;;;;4934119;29;20285;-76
2023/04/28 02:28:59;;;;;;;22.00;11.53;;;3.70;99.90;;;;;;4935281;29;20572;-76
2023/04/28 02:31:26;;;;;;;23.00;11.40;;;3.70;99.90;;;;;;4934601;29;20208;-75
2023/04/28 02:33:53;;;;;;;21.87;11.47;;;3.60;99.90;;;;;;4934536;29;20203;-74
2023/04/28 02:36:20;;;;;;;20.37;10.80;;;3.50;99.90;;;;;;4949887;29;20198;-74
2023/04/28 02:38:47;;;;;;;22.87;11.00;;;3.50;99.90;;;;;;4933996;29;20681;-75
2023/04/28 02:41:14;;;;;;;21.57;11.30;;;3.50;99.90;;;;;;4918305;29;20646;-76
2023/04/28 02:43:41;;;;;;;24.03;11.13;;;3.40;99.90;;;;;;4934160;29;20222;-74
2023/04/28 02:46:08;;;;;;;21.30;10.90;;;3.40;99.90;;;;;;4934210;29;20306;-75
2023/04/28 02:48:35;;;;;;;20.90;11.23;;;3.40;99.90;;;;;;4950022;29;20212;-74
2023/04/28 02:51:02;;;;;;;21.03;10.80;;;3.50;99.90;;;;;;4933819;29;20200;-73
2023/04/28 02:53:29;;;;;;;22.17;11.63;;;3.40;99.90;;;;;;4935530;29;20212;-74
2023/04/28 02:55:56;;;;;;;22.17;11.63;;;3.40;99.90;;;;;;4935285;29;20200;-73
2023/04/28 02:58:23;;;;;;;20.83;11.83;;;3.40;99.90;;;;;;4933804;29;20259;-73
2023/04/28 03:00:50;;;;;;;21.00;11.33;;;3.40;99.90;;;;;;4934142;29;20197;-73
2023/04/28 03:03:17;;;;;;;22.10;11.30;;;3.40;99.90;;;;;;4934025;29;20245;-73
2023/04/28 03:05:44;;;;;;;21.13;11.43;;;3.30;99.90;;;;;;4933463;29;20635;-73
2023/04/28 03:08:11;;;;;;;26.60;11.60;;;3.40;99.90;;;;;;4917781;29;20234;-74
2023/04/28 03:10:38;;;;;;;23.90;11.07;;;3.30;99.90;;;;;;4934369;29;20204;-75
2023/04/28 03:13:05;;;;;;;19.93;11.60;;;3.30;99.90;;;;;;4933813;29;20199;-73
2023/04/28 03:15:32;;;;;;;25.23;11.40;;;3.30;99.90;;;;;;4933583;29;20224;-73
2023/04/28 03:18:00;;;;;;;23.17;11.30;;;3.30;99.90;;;;;;4917582;29;20629;-74
2023/04/28 03:20:27;;;;;;;20.97;11.50;;;3.30;99.90;;;;;;4933892;29;20227;-74
2023/04/28 03:22:53;;;;;;;21.87;11.33;;;3.40;99.90;;;;;;4933481;29;20567;-73
2023/04/28 03:25:20;;;;;;;20.67;10.87;;;3.40;99.90;;;;;;4934050;29;20203;-72
2023/04/28 03:27:47;;;;;;;24.63;12.10;;;3.50;99.90;;;;;;4933516;29;20188;-72
2023/04/28 03:30:14;;;;;;;24.53;11.50;;;3.50;99.90;;;;;;4918062;29;20222;-72
2023/04/28 03:32:41;;;;;;;23.07;11.30;;;3.40;99.90;;;;;;4933580;29;20216;-72
2023/04/28 03:35:08;;;;;;;19.37;11.53;;;3.40;99.90;;;;;;4933504;29;20565;-72
2023/04/28 03:37:35;;;;;;;19.73;11.33;;;3.50;99.90;;;;;;4934548;29;20217;-72
2023/04/28 03:40:02;;;;;;;20.00;10.77;;;3.50;99.90;;;;;;4936636;29;20208;-73
2023/04/28 03:42:29;;;;;;;24.13;11.60;;;3.50;99.90;;;;;;4937213;29;20209;-72
2023/04/28 03:44:56;;;;;;;37.17;11.80;;;3.50;99.90;;;;;;4938524;29;20563;-73
2023/04/28 03:47:23;;;;;;;22.97;10.83;;;3.60;99.90;;;;;;4937008;29;20192;-72
2023/04/28 03:49:50;;;;;;;22.87;10.63;;;3.60;99.90;;;;;;4937089;29;20205;-72
2023/04/28 03:52:18;;;;;;;22.10;10.97;;;3.60;99.90;;;;;;4937111;29;20674;-73
2023/04/28 03:54:46;;;;;;;26.60;10.83;;;3.70;99.90;;;;;;4938379;29;20557;-73
2023/04/28 03:57:12;;;;;;;21.63;10.93;;;3.70;99.90;;;;;;4937116;29;20205;-72
2023/04/28 03:59:39;;;;;;;21.70;11.13;;;3.90;99.90;;;;;;4936764;29;20694;-72
2023/04/28 04:02:07;;;;;;;23.63;10.77;;;3.90;99.90;;;;;;4936724;29;20206;-73
2023/04/28 04:04:33;;;;;;;26.60;11.00;;;3.90;99.90;;;;;;4937024;29;20666;-73
2023/04/28 04:07:01;;;;;;;21.10;11.70;;;3.90;99.90;;;;;;4936705;29;20196;-74
2023/04/28 04:09:28;;;;;;;26.57;12.17;;;3.90;99.90;;;;;;4952576;29;20212;-74
2023/04/28 04:11:55;;;;;;;21.97;10.53;;;4.00;99.90;;;;;;4936915;29;20222;-73
2023/04/28 04:14:22;;;;;;;21.90;11.60;;;4.00;99.90;;;;;;4952865;29;20205;-73
2023/04/28 04:16:49;;;;;;;22.87;11.03;;;4.00;99.90;;;;;;4952303;29;20245;-74
2023/04/28 04:19:15;;;;;;;22.23;11.40;;;4.10;99.90;;;;;;4937405;29;20225;-75
2023/04/28 04:21:42;;;;;;;22.47;11.23;;;4.10;99.90;;;;;;4938996;29;20205;-75
2023/04/28 04:24:09;;;;;;;21.23;10.87;;;4.20;99.90;;;;;;4938380;29;20559;-75
2023/04/28 04:26:36;;;;;;;23.77;11.43;;;4.20;99.90;;;;;;4936500;29;20204;-73
2023/04/28 04:29:03;;;;;;;24.80;11.57;;;4.30;99.90;;;;;;4941253;29;20202;-73
2023/04/28 04:31:30;;;;;;;20.07;10.63;;;4.30;99.90;;;;;;4942076;29;20252;-74
2023/04/28 04:33:58;;;;;;;17.80;10.17;;;4.30;99.90;;;;;;4899749;29;20210;-73
2023/04/28 04:36:25;;;;;;;22.27;11.33;;;4.30;99.90;;;;;;4897699;29;20622;-72
2023/04/28 04:38:52;;;;;;;20.97;10.70;;;4.30;99.90;;;;;;4881776;29;20234;-72
2023/04/28 04:41:20;;;;;;;22.90;10.97;;;4.40;99.90;;;;;;4897358;29;20688;-73
2023/04/28 04:43:47;;;;;;;22.03;10.47;;;4.40;99.90;;;;;;4881658;29;20207;-73
2023/04/28 04:46:14;;;;;;;21.07;10.20;;;4.50;99.90;;;;;;4865734;29;20666;-73
2023/04/28 04:48:42;;;;;;;27.10;11.17;;;4.50;99.90;;;;;;4897201;29;20220;-73
2023/04/28 04:51:09;;;;;;;18.93;10.73;;;4.60;99.90;;;;;;4884875;29;20207;-74
2023/04/28 04:53:36;;;;;;;22.13;10.40;;;4.70;99.90;;;;;;4937468;29;20208;-73
2023/04/28 04:56:03;;;;;;;18.80;10.00;;;4.70;99.90;;;;;;4951749;29;20192;-73
2023/04/28 04:58:30;;;;;;;20.70;10.00;;;4.80;99.90;;;;;;4936073;29;20233;-73
2023/04/28 05:00:56;;;;;;;23.10;10.70;;;4.80;99.90;;;;;;4935709;29;20201;-72
2023/04/28 05:03:23;;;;;;;18.67;10.60;;;4.90;99.90;;;;;;4935504;29;20229;-72
2023/04/28 05:05:50;;;;;;;26.10;11.20;;;4.90;99.90;;;;;;4935934;29;20609;-72
2023/04/28 05:08:18;;;;;;;20.47;10.57;;;5.00;99.90;;;;;;4937291;29;20206;-72
2023/04/28 05:10:48;;;;;;;23.20;10.50;;;5.00;99.90;;;;;;4920262;29;20238;-73
2023/04/28 05:13:15;;;;;;;21.83;11.07;;;5.10;99.90;;;;;;4937263;29;20540;-73
2023/04/28 05:15:43;;;;;;;19.57;10.77;;;5.30;99.90;;;;;;4935405;29;20202;-73
2023/04/28 05:18:10;;;;;;;24.17;11.23;;;5.30;99.90;;;;;;4950846;29;20225;-73
2023/04/28 05:20:37;;;;;;;24.00;11.20;;;5.50;99.90;;;;;;4935357;29;20609;-73
2023/04/28 05:23:04;;;;;;;23.20;11.10;;;5.50;99.90;;;;;;4936626;29;20558;-73
2023/04/28 05:25:31;;;;;;;24.23;11.83;;;5.60;99.90;;;;;;4935177;29;20234;-72
2023/04/28 05:28:03;;;;;;;20.03;11.40;;;5.60;99.90;;;;;;4936449;29;20206;-71
2023/04/28 05:30:34;;;;;;;23.00;11.30;;;5.40;99.90;;;;;;4951092;29;20649;-72
2023/04/28 05:33:01;;;;;;;24.23;10.93;;;5.60;99.90;;;;;;4935218;29;20208;-72
2023/04/28 05:35:29;;;;;;;21.50;11.30;;;5.80;99.90;;;;;;4935187;29;20235;-72
2023/04/28 05:37:57;;;;;;;21.83;11.57;;;5.90;99.90;;;;;;4935022;29;20227;-74
2023/04/28 05:40:25;;;;;;;21.53;11.03;;;6.00;99.90;;;;;;4934723;29;20219;-74
2023/04/28 05:42:52;;;;;;;23.37;12.23;;;6.10;99.90;;;;;;4935119;29;20659;-73
2023/04/28 05:45:19;;;;;;;23.00;11.97;;;6.10;99.90;;;;;;4950643;29;20313;-72
2023/04/28 05:47:46;;;;;;;27.63;11.80;;;6.20;99.90;;;;;;4936109;29;20214;-73
2023/04/28 05:50:13;;;;;;;39.43;12.53;;;6.30;99.90;;;;;;4934713;29;20273;-73
2023/04/28 05:52:40;;;;;;;23.67;11.13;;;6.40;99.90;;;;;;4934827;29;20678;-74
2023/04/28 05:55:07;;;;;;;22.73;11.27;;;6.50;99.90;;;;;;4934868;29;20213;-74
2023/04/28 05:57:34;;;;;;;23.53;11.27;;;6.60;99.90;;;;;;4950683;29;20229;-73
2023/04/28 06:00:18;;;;;;;26.37;10.80;;;6.70;99.90;;;;;;4935780;29;20223;-73
2023/04/28 06:02:45;;;;;;;26.97;11.50;;;6.70;99.90;;;;;;4935724;29;20208;-74
2023/04/28 06:05:12;;;;;;;23.80;10.90;;;6.80;99.90;;;;;;4934336;29;20210;-75
2023/04/28 06:07:39;;;;;;;27.80;11.00;;;6.70;99.90;;;;;;4934384;29;20668;-73
2023/04/28 06:10:08;;;;;;;28.57;12.00;;;6.70;99.90;;;;;;4950521;29;20211;-73
2023/04/28 06:12:36;;;;;;;21.50;11.07;;;6.80;99.90;;;;;;4934416;29;20225;-74
2023/04/28 06:15:04;;;;;;;22.60;11.73;;;6.90;99.90;;;;;;4950084;29;20611;-74
2023/04/28 06:17:32;;;;;;;28.90;11.67;;;7.10;99.90;;;;;;4933937;29;20227;-74
2023/04/28 06:19:59;;;;;;;25.17;11.63;;;7.20;99.90;;;;;;4934047;29;20684;-74
2023/04/28 06:22:26;;;;;;;24.00;10.97;;;7.40;99.90;;;;;;4949535;29;20214;-75
2023/04/28 06:24:53;;;;;;;25.73;11.53;;;7.50;99.90;;;;;;4934241;29;20207;-74
2023/04/28 06:27:20;;;;;;;20.93;11.53;;;7.60;99.90;;;;;;4918217;29;20234;-73
2023/04/28 06:29:48;;;;;;;19.60;10.20;;;7.70;99.90;;;;;;4934065;29;20206;-74
2023/04/28 06:32:15;;;;;;;22.70;9.80;;;7.70;99.90;;;;;;4935130;29;20213;-74
2023/04/28 06:34:41;;;;;;;18.27;9.83;;;7.70;99.90;;;;;;4934977;29;20222;-75
2023/04/28 06:37:08;;;;;;;18.83;9.17;;;7.90;99.90;;;;;;4933483;29;20234;-75
2023/04/28 06:39:35;;;;;;;21.87;9.27;;;8.00;99.90;;;;;;4935152;29;20320;-74
2023/04/28 06:42:03;;;;;;;14.50;8.30;;;8.10;99.90;;;;;;4933710;29;20202;-73
2023/04/28 06:44:29;;;;;;;14.57;6.87;;;8.10;99.90;;;;;;4933694;29;20199;-72
2023/04/28 06:46:56;;;;;;;14.53;7.00;;;8.20;99.90;;;;;;4933704;29;20210;-74
2023/04/28 06:49:23;;;;;;;15.80;7.67;;;8.30;99.90;;;;;;4930790;29;20209;-78
2023/04/28 06:51:50;;;;;;;16.00;8.70;;;8.40;99.90;;;;;;4934007;29;20206;-79
2023/04/28 06:54:18;;;;;;;16.47;8.17;;;8.40;99.90;;;;;;4934261;29;20241;-80
2023/04/28 06:56:45;;;;;;;25.10;9.60;;;8.40;99.90;;;;;;4934293;29;20210;-74
2023/04/28 06:59:14;;;;;;;13.80;7.53;;;8.40;99.90;;;;;;4934082;29;20583;-76
2023/04/28 07:01:41;;;;;;;15.77;8.03;;;8.50;99.90;;;;;;4934226;29;20195;-77
2023/04/28 07:04:08;;;;;;;17.33;8.00;;;8.70;99.90;;;;;;4935800;29;20203;-74
2023/04/28 07:06:44;;;;;;;17.03;7.90;;;8.90;99.90;;;;;;4934038;29;20294;-82
2023/04/28 07:09:11;;;;;;;14.53;7.53;;;9.00;99.90;;;;;;4935171;29;20290;-78
2023/04/28 07:11:41;;;;;;;15.07;7.50;;;9.20;99.90;;;;;;4936345;29;20195;-78
2023/04/28 07:14:08;;;;;;;14.67;7.07;;;9.30;99.90;;;;;;4929290;29;20202;-75
2023/04/28 07:16:44;;;;;;;12.47;6.10;;;9.20;99.90;;;;;;4945150;29;20231;-79
2023/04/28 07:19:11;;;;;;;10.90;5.63;;;9.40;99.90;;;;;;4948123;29;20688;-79
2023/04/28 07:21:38;;;;;;;9.37;5.20;;;9.40;99.90;;;;;;4954503;29;20213;-73
2023/04/28 07:24:06;;;;;;;13.90;5.50;;;9.50;99.90;;;;;;4947053;29;20205;-82
2023/04/28 07:26:33;;;;;;;7.60;4.10;;;9.50;99.90;;;;;;4922314;29;20214;-72
2023/04/28 07:29:12;;;;;;;11.77;4.27;;;9.50;99.90;;;;;;4937767;29;20198;-80
2023/04/28 07:31:39;;;;;;;8.70;3.80;;;9.60;99.90;;;;;;4937646;29;20214;-82
2023/04/28 07:34:06;;;;;;;5.13;2.43;;;9.70;99.90;;;;;;4938856;29;20194;-72
2023/04/28 07:36:33;;;;;;;7.33;4.20;;;9.80;99.90;;;;;;4938016;29;20292;-82
2023/04/28 07:39:01;;;;;;;9.13;4.27;;;9.80;99.90;;;;;;4953338;29;20223;-81
2023/04/28 07:41:28;;;;;;;9.67;4.27;;;9.90;99.90;;;;;;4939146;29;20664;-76
2023/04/28 07:43:55;;;;;;;8.87;4.90;;;10.10;99.90;;;;;;4937346;29;20664;-76
2023/04/28 07:46:24;;;;;;;10.27;4.90;;;10.10;99.90;;;;;;4937125;29;20567;-78
2023/04/28 07:48:53;;;;;;;8.27;3.30;;;10.20;99.90;;;;;;4937867;29;20203;-77
2023/04/28 07:51:20;;;;;;;4.10;2.50;;;10.20;99.90;;;;;;4937479;29;20198;-76
2023/04/28 07:53:47;;;;;;;5.47;2.40;;;9.90;99.60;;;;;;4938472;29;20206;-76
2023/04/28 07:56:15;;;;;;;5.40;2.93;;;10.10;99.80;;;;;;4952948;29;20262;-77
2023/04/28 07:58:41;;;;;;;5.70;2.50;;;10.10;99.80;;;;;;4936906;29;20274;-74
2023/04/28 08:01:08;;;;;;;5.90;2.53;;;10.10;99.90;;;;;;4937129;29;20206;-75
2023/04/28 08:03:35;;;;;;;4.40;2.37;;;10.10;97.60;;;;;;4937895;29;20282;-77
2023/04/28 08:06:03;;;;;;;3.60;2.20;;;10.50;99.50;;;;;;4938045;29;20218;-78
2023/04/28 08:08:31;;;;;;;5.43;2.00;;;11.70;96.60;;;;;;4952539;29;20211;-76
2023/04/28 08:10:58;;;;;;;3.87;2.17;;;13.10;91.10;;;;;;4936891;29;20298;-80
2023/04/28 08:13:27;;;;;;;3.20;1.90;;;13.50;77.50;;;;;;4956651;29;20301;-75
2023/04/28 08:15:55;;;;;;;8.00;2.10;;;13.10;74.50;;;;;;4938823;29;20299;-83
2023/04/28 08:18:23;;;;;;;3.27;2.00;;;12.80;77.90;;;;;;4937807;29;20195;-83
2023/04/28 08:20:51;;;;;;;4.33;2.30;;;12.50;79.20;;;;;;4931437;29;20246;-83
2023/04/28 08:23:19;;;;;;;4.03;2.20;;;13.10;77.40;;;;;;4935942;29;20240;-78
2023/04/28 08:25:46;;;;;;;6.13;2.30;;;14.20;73.70;;;;;;4936987;29;20285;-82
2023/04/28 08:28:13;;;;;;;3.20;2.20;;;14.50;71.50;;;;;;4935930;29;20210;-78
2023/04/28 08:30:40;;;;;;;5.50;2.50;;;14.80;67.30;;;;;;4936293;29;20269;-81
2023/04/28 08:33:07;;;;;;;4.53;2.30;;;15.50;67.40;;;;;;4949462;29;20219;-76
2023/04/28 08:35:34;;;;;;;4.00;2.33;;;16.30;65.20;;;;;;4923308;29;20200;-78
2023/04/28 08:38:02;;;;;;;4.30;1.90;;;16.90;62.30;;;;;;4918115;29;20223;-78
2023/04/28 08:40:30;;;;;;;2.93;1.60;;;17.30;56.70;;;;;;4919081;29;20617;-75
2023/04/28 08:42:58;;;;;;;4.23;2.00;;;17.10;54.90;;;;;;4919832;29;20195;-77
2023/04/28 08:45:29;;;;;;;4.43;2.30;;;17.20;56.20;;;;;;4922789;29;20199;-76
2023/04/28 08:47:59;;;;;;;4.73;2.40;;;17.80;57.90;;;;;;4918789;29;20230;-75
2023/04/28 08:50:30;;;;;;;4.70;2.20;;;16.70;54.90;;;;;;4920053;29;20255;-80
2023/04/28 08:52:57;;;;;;;6.97;2.60;;;16.60;56.90;;;;;;4917652;29;20223;-80
2023/04/28 08:55:26;;;;;;;4.90;2.60;;;16.50;57.30;;;;;;4916323;29;20192;-77
2023/04/28 08:57:54;;;;;;;5.60;3.03;;;15.80;57.40;;;;;;4916334;29;20719;-76
2023/04/28 09:00:20;;;;;;;5.10;2.40;;;15.50;58.60;;;;;;4900309;29;20220;-76
2023/04/28 09:02:47;;;;;;;4.40;2.50;;;15.20;60.40;;;;;;4916376;29;20202;-81
2023/04/28 09:05:14;;;;;;;4.03;2.50;;;15.10;61.20;;;;;;4916042;29;20231;-77
2023/04/28 09:07:45;;;;;;;6.33;2.60;;;14.70;61.10;;;;;;4915904;29;20353;-75
2023/04/28 09:10:23;;;;;;;4.90;2.57;;;14.40;62.10;;;;;;4900204;29;20226;-76
2023/04/28 09:12:52;;;;;;;4.80;2.60;;;13.90;62.00;;;;;;4931753;29;20210;-75
2023/04/28 09:15:28;;;;;;;3.97;2.47;;;13.60;64.20;;;;;;4917323;29;20196;-77
2023/04/28 09:17:58;;;;;;;5.67;2.90;;;13.60;64.70;;;;;;4915523;29;20241;-76
2023/04/28 09:20:27;;;;;;;4.90;2.37;;;13.40;64.50;;;;;;4917313;29;20223;-79
2023/04/28 09:22:56;;;;;;;4.67;2.57;;;12.30;66.80;;;;;;4917348;29;20188;-76
2023/04/28 09:25:23;;;;;;;4.27;2.70;;;12.50;70.30;;;;;;4915992;29;20203;-80
2023/04/28 09:27:50;;;;;;;3.97;2.70;;;12.80;68.30;;;;;;4916130;29;20662;-80
2023/04/28 09:30:17;;;;;;;5.70;2.70;;;13.00;67.80;;;;;;4915877;29;20218;-80
2023/04/28 09:32:45;;;;;;;5.00;2.60;;;13.00;66.90;;;;;;4915991;29;20199;-80
2023/04/28 09:35:11;;;;;;;4.23;2.60;;;13.10;68.40;;;;;;4916014;29;20234;-79
2023/04/28 09:37:38;;;;;;;4.77;2.43;;;13.30;67.60;;;;;;4915432;29;20257;-80
2023/04/28 09:40:08;;;;;;;6.57;2.60;;;13.30;66.80;;;;;;4917278;29;20556;-78
2023/04/28 09:42:40;;;;;;;6.73;2.60;;;13.30;65.10;;;;;;4931998;29;20203;-80
2023/04/28 09:45:10;;;;;;;3.87;2.40;;;13.00;66.10;;;;;;4916763;29;20196;-76
2023/04/28 09:47:38;;;;;;;7.00;2.50;;;13.00;67.20;;;;;;4915917;29;20579;-78
2023/04/28 09:50:10;;;;;;;3.67;2.10;;;13.30;66.30;;;;;;4917006;29;20195;-77
2023/04/28 09:52:37;;;;;;;5.87;2.23;;;13.50;69.00;;;;;;4915699;29;20207;-78
2023/04/28 09:55:07;;;;;;;5.03;2.43;;;14.00;69.30;;;;;;4915418;29;20219;-78
2023/04/28 09:57:35;;;;;;;3.50;2.13;;;14.40;68.30;;;;;;4916450;29;20298;-78
2023/04/28 10:00:05;;;;;;;4.30;2.10;;;14.40;68.00;;;;;;4914651;29;20230;-77
2023/04/28 10:02:36;;;;;;;3.80;2.10;;;14.10;63.30;;;;;;4899333;29;20633;-77
2023/04/28 10:05:11;;;;;;;6.70;2.40;;;13.70;63.00;;;;;;4915964;29;20199;-77
2023/04/28 10:07:40;;;;;;;4.73;2.27;;;13.50;63.60;;;;;;4914791;29;20661;-75
2023/04/28 10:10:08;;;;;;;5.40;2.27;;;13.50;64.80;;;;;;4898861;29;20199;-79
2023/04/28 10:12:38;;;;;;;5.60;2.60;;;13.60;64.00;;;;;;4915229;29;20200;-77
2023/04/28 10:15:08;;;;;;;6.13;2.30;;;13.40;66.60;;;;;;4914746;29;20200;-77
2023/04/28 10:17:36;;;;;;;6.00;2.47;;;13.30;65.10;;;;;;4914469;29;20676;-78
2023/04/28 10:20:05;;;;;;;6.50;2.57;;;13.60;64.00;;;;;;4930700;29;20226;-76
2023/04/28 10:22:57;;;;;;;4.57;2.20;;;14.20;63.00;;;;;;4916209;29;20214;-79
2023/04/28 10:25:25;;;;;;;3.67;2.13;;;14.70;62.00;;;;;;4930186;29;20210;-77
2023/04/28 10:27:53;;;;;;;6.00;2.33;;;15.30;63.30;;;;;;4930467;29;20210;-75
2023/04/28 10:30:24;;;;;;;4.33;2.10;;;15.70;61.70;;;;;;4914419;29;20208;-78
2023/04/28 10:33:13;;;;;;;5.37;2.67;;;16.10;61.40;;;;;;4914813;29;20227;-78
2023/04/28 10:35:44;;;;;;;7.07;2.30;;;15.40;58.70;;;;;;4914516;29;20247;-78
2023/04/28 10:38:15;;;;;;;4.73;2.20;;;15.40;59.20;;;;;;4914330;29;20239;-77
2023/04/28 10:40:50;;;;;;;5.23;1.83;;;16.00;60.20;;;;;;4914852;29;20231;-79
2023/04/28 10:43:30;;;;;;;4.40;2.00;;;16.70;58.40;;;;;;4929843;29;20213;-76
2023/04/28 10:46:01;;;;;;;3.73;1.80;;;17.80;57.70;;;;;;4913805;29;20218;-75
2023/04/28 10:48:28;;;;;;;5.07;2.00;;;18.70;54.90;;;;;;4929231;29;20251;-77
2023/04/28 10:51:08;;;;;;;4.70;2.30;;;18.00;51.70;;;;;;4915466;29;20194;-75
2023/04/28 10:53:58;;;;;;;3.73;1.80;;;17.90;52.40;;;;;;4914122;29;20227;-77
2023/04/28 10:56:26;;;;;;;3.87;2.00;;;17.20;52.70;;;;;;4906559;29;20230;-77
2023/04/28 10:58:57;;;;;;;6.13;2.00;;;16.90;54.00;;;;;;4914462;29;20199;-77
2023/04/28 11:01:25;;;;;;;4.43;1.80;;;16.90;54.10;;;;;;4913962;29;20234;-78
2023/04/28 11:03:59;;;;;;;4.13;2.00;;;17.00;54.20;;;;;;4915621;29;20236;-82
2023/04/28 11:06:30;;;;;;;3.67;2.23;;;16.70;54.60;;;;;;4930062;29;20199;-77
2023/04/28 11:09:00;;;;;;;4.53;2.47;;;16.60;54.60;;;;;;4914028;29;20294;-78
2023/04/28 11:11:31;;;;;;;3.77;2.17;;;16.50;56.10;;;;;;4914093;29;20671;-78
2023/04/28 11:14:17;;;;;;;4.60;2.13;;;16.20;57.40;;;;;;4929941;29;20283;-77
2023/04/28 11:16:58;;;;;;;3.43;2.00;;;16.30;58.20;;;;;;4913851;29;20620;-75
2023/04/28 11:19:32;;;;;;;4.60;2.00;;;17.00;57.10;;;;;;4915002;29;20226;-77
2023/04/28 11:22:02;;;;;;;6.13;2.30;;;18.00;54.60;;;;;;4915195;29;20314;-79
2023/04/28 11:24:30;;;;;;;5.10;2.10;;;19.10;55.00;;;;;;4914319;29;20322;-78
2023/04/28 11:27:09;;;;;;;4.53;2.37;;;19.60;50.20;;;;;;4929322;29;20556;-81
2023/04/28 11:29:37;;;;;;;2.87;1.97;;;19.40;48.80;;;;;;4915551;29;20199;-82
2023/04/28 11:32:05;;;;;;;3.77;2.10;;;19.10;49.50;;;;;;4933132;29;20196;-77
2023/04/28 11:34:38;;;;;;;5.40;2.00;;;19.30;50.00;;;;;;4930592;29;20290;-79
2023/04/28 11:37:07;;;;;;;8.37;2.33;;;19.60;49.90;;;;;;4916769;29;20246;-78
2023/04/28 11:39:46;;;;;;;3.80;2.20;;;20.20;48.70;;;;;;4922294;29;20214;-83
2023/04/28 11:42:28;;;;;;;5.10;2.37;;;20.90;48.70;;;;;;4913690;29;20633;-76
2023/04/28 11:44:55;;;;;;;5.07;2.50;;;21.10;46.00;;;;;;4913912;29;20726;-77
2023/04/28 11:47:30;;;;;;;3.53;2.37;;;21.30;47.10;;;;;;4913669;29;20199;-77
2023/04/28 11:49:58;;;;;;;5.43;2.30;;;22.00;45.60;;;;;;4914519;29;20653;-79
2023/04/28 11:52:26;;;;;;;5.03;2.50;;;22.50;45.20;;;;;;4914082;29;20614;-78
2023/04/28 11:57:46;;;;;;;5.55;3.05;;;23.20;42.30;;;;;;4899739;29;20230;-82
2023/04/28 12:01:10;;;;;;;5.10;2.60;;;23.80;41.70;;;;;;4875444;29;20329;-80
2023/04/28 12:03:47;;;;;;;7.25;2.92;;;24.40;42.10;;;;;;4899572;29;20606;-78
2023/04/28 12:06:17;;;;;;;4.95;3.05;;;24.90;40.90;;;;;;4898986;29;20247;-81
2023/04/28 12:08:44;;;;;;;6.25;2.67;;;24.20;39.20;;;;;;4883149;29;20206;-77
2023/04/28 12:11:13;;;;;;;4.88;2.80;;;22.90;40.70;;;;;;4899230;29;20244;-77
2023/04/28 12:13:40;;;;;;;4.63;3.00;;;21.90;42.00;;;;;;4899439;29;20199;-76
2023/04/28 12:16:10;;;;;;;7.30;3.50;;;20.30;42.80;;;;;;4897535;29;20204;-75
2023/04/28 12:18:37;;;;;;;6.03;3.00;;;20.10;44.60;;;;;;4897369;29;20208;-81
2023/04/28 12:21:20;;;;;;;4.40;3.20;;;20.20;45.60;;;;;;4897847;29;20238;-78
2023/04/28 12:23:56;;;;;;;7.03;3.70;;;20.20;46.40;;;;;;4899163;29;20196;-76
2023/04/28 12:26:26;;;;;;;5.37;3.00;;;19.80;45.10;;;;;;4899689;29;20238;-78
2023/04/28 12:28:53;;;;;;;5.77;3.20;;;20.30;46.70;;;;;;4897880;29;20207;-80
2023/04/28 12:31:20;;;;;;;4.67;3.00;;;20.50;46.80;;;;;;4897604;29;20218;-77
2023/04/28 12:33:47;;;;;;;6.13;3.03;;;20.20;46.00;;;;;;4897784;29;20726;-77
2023/04/28 12:36:16;;;;;;;6.37;3.53;;;19.80;46.40;;;;;;4897383;29;20564;-75
2023/04/28 12:38:48;;;;;;;5.60;3.60;;;19.80;46.40;;;;;;4897652;29;20327;-79
2023/04/28 12:41:15;;;;;;;5.93;3.10;;;19.40;45.80;;;;;;4897610;29;20220;-77
2023/04/28 12:43:45;;;;;;;5.53;3.37;;;19.30;46.90;;;;;;4897814;29;20251;-78
2023/04/28 12:46:14;;;;;;;8.17;3.47;;;19.90;48.30;;;;;;4897620;29;20216;-77
2023/04/28 12:48:41;;;;;;;5.93;3.03;;;20.70;48.70;;;;;;4898500;29;20216;-78
2023/04/28 12:51:08;;;;;;;5.30;3.23;;;21.80;46.70;;;;;;4898843;29;20866;-75
2023/04/28 12:53:35;;;;;;;8.30;3.73;;;22.30;44.30;;;;;;4897300;29;20646;-73